Winterville, Mississippi
Current Conditions -  °F | °C
As of 8:53 AM on Thursday 30 Oct 2014 (Local Time) from KGLH Reporting Station
Few Clouds Few Clouds  
Wind Chill: 53°   Ceiling: Unl
Heat Index: 53°   Visibility: 9mi
Dew Point: 50°   Wind: 3mph
Humidity: 89%   Direction: 10°N
Pressure: 30.18"   Gusts: NA
Location:  33.5°N, 91.06°W
Report Text: KGLH 301353Z AUTO 01003KT 9SM FEW001 12/10 A3018 RMK AO2 SLP227 T01170100 $
Loading
Personal Weather Stations






























Interactive Weather Map
Tropical Storm Tracking
New forecast layout! Learn more

10-Day Weather Forecast

Advertisements
Track Severe Weather on mobile